Time;durP1;ratioP1;P1;durP2;ratioP2;P2;SDS_P1;SDS_P2;PMS_P1;PMS_P2;Temp;Humidity;BMP_temperature;BMP_pressure;BME280_temperature;BME280_humidity;BME280_pressure;Samples;Min_cycle;Max_cycle;Signal;HPM_P1;HPM_P2
2022/11/24 00:00:33;;;;;;;21.02;12.50;;;5.10;99.90;;;;;;5019102;28;20056;-73
2022/11/24 00:02:59;;;;;;;20.88;11.98;;;5.10;99.90;;;;;;5035995;28;20033;-72
2022/11/24 00:05:25;;;;;;;25.77;12.40;;;5.20;99.90;;;;;;5019542;28;20040;-73
2022/11/24 00:07:51;;;;;;;26.50;14.57;;;5.20;99.90;;;;;;5037450;28;20030;-73
2022/11/24 00:10:17;;;;;;;24.45;12.85;;;5.20;99.90;;;;;;5019720;28;20413;-72
2022/11/24 00:12:42;;;;;;;27.33;13.85;;;5.20;99.90;;;;;;5018862;28;20034;-72
2022/11/24 00:15:08;;;;;;;25.33;13.35;;;5.20;99.90;;;;;;5019788;28;20026;-72
2022/11/24 00:17:34;;;;;;;23.08;14.20;;;5.20;99.90;;;;;;5037106;28;20034;-72
2022/11/24 00:19:59;;;;;;;21.05;13.57;;;5.20;99.90;;;;;;5019604;28;20485;-72
2022/11/24 00:22:25;;;;;;;21.20;12.85;;;5.20;99.90;;;;;;5020195;28;20030;-73
2022/11/24 00:24:51;;;;;;;23.92;13.38;;;5.20;99.90;;;;;;5020153;28;20116;-72
2022/11/24 00:27:16;;;;;;;22.23;14.57;;;5.20;99.90;;;;;;5037412;28;20064;-72
2022/11/24 00:29:42;;;;;;;24.88;14.43;;;5.20;99.90;;;;;;5037402;28;20049;-73
2022/11/24 00:32:07;;;;;;;29.70;14.00;;;5.20;99.90;;;;;;5035984;28;20029;-73
2022/11/24 00:34:33;;;;;;;24.98;14.20;;;5.20;99.90;;;;;;5037922;28;20025;-72
2022/11/24 00:36:59;;;;;;;23.40;14.15;;;5.20;99.90;;;;;;5038861;28;20052;-73
2022/11/24 00:39:25;;;;;;;25.63;14.52;;;5.20;99.90;;;;;;5040157;28;20029;-73
2022/11/24 00:41:50;;;;;;;25.00;14.27;;;5.20;99.90;;;;;;5039330;28;20036;-72
2022/11/24 00:44:16;;;;;;;26.02;14.43;;;5.20;99.90;;;;;;5039403;28;20426;-73
2022/11/24 00:46:42;;;;;;;23.20;13.93;;;5.20;99.90;;;;;;5020872;28;20021;-73
2022/11/24 00:49:08;;;;;;;26.10;14.88;;;5.10;99.90;;;;;;5020894;28;20547;-73
2022/11/24 00:51:33;;;;;;;26.92;15.90;;;5.10;99.90;;;;;;5024397;28;20056;-73
2022/11/24 00:54:00;;;;;;;23.77;15.18;;;5.10;99.90;;;;;;5022448;28;20030;-73
2022/11/24 00:56:27;;;;;;;27.42;15.63;;;5.10;99.90;;;;;;5039788;28;20108;-73
2022/11/24 00:58:53;;;;;;;29.13;16.08;;;5.10;99.90;;;;;;5021340;28;20461;-73
2022/11/24 01:01:22;;;;;;;23.48;14.80;;;5.10;99.90;;;;;;5022243;28;20128;-73
2022/11/24 01:03:48;;;;;;;25.23;15.30;;;5.10;99.90;;;;;;5024712;28;20396;-73
2022/11/24 01:06:25;;;;;;;26.02;14.77;;;5.00;99.90;;;;;;5025689;28;20393;-73
2022/11/24 01:08:51;;;;;;;25.73;15.38;;;5.00;99.90;;;;;;5042924;28;20026;-73
2022/11/24 01:11:21;;;;;;;27.23;15.90;;;5.00;99.90;;;;;;5024893;28;20044;-73
2022/11/24 01:13:50;;;;;;;31.10;16.17;;;5.00;99.90;;;;;;5042715;28;20026;-73
2022/11/24 01:16:28;;;;;;;27.33;15.27;;;4.90;99.90;;;;;;5042107;28;20025;-72
2022/11/24 01:18:54;;;;;;;27.92;17.13;;;4.90;99.90;;;;;;5024022;28;20057;-72
2022/11/24 01:21:20;;;;;;;24.77;15.07;;;4.90;99.90;;;;;;5042369;28;20040;-72
2022/11/24 01:23:46;;;;;;;25.02;15.20;;;4.90;99.90;;;;;;5044525;28;20109;-73
2022/11/24 01:26:14;;;;;;;27.92;16.13;;;4.90;99.90;;;;;;5046874;28;20036;-73
2022/11/24 01:28:40;;;;;;;27.92;16.08;;;4.90;99.90;;;;;;5028069;28;20027;-73
2022/11/24 01:31:07;;;;;;;27.27;16.10;;;4.90;99.90;;;;;;5045604;28;20057;-73
2022/11/24 01:33:33;;;;;;;24.70;15.50;;;4.90;99.90;;;;;;5044914;28;20510;-73
2022/11/24 01:35:59;;;;;;;30.60;15.20;;;4.90;99.90;;;;;;5044578;28;20059;-73
2022/11/24 01:38:26;;;;;;;23.80;14.73;;;4.80;99.90;;;;;;5025943;28;20088;-73
2022/11/24 01:41:09;;;;;;;26.58;15.75;;;4.90;99.90;;;;;;5025585;28;20040;-73
2022/11/24 01:43:35;;;;;;;22.95;14.50;;;4.80;99.90;;;;;;5024582;28;20064;-72
2022/11/24 01:46:31;;;;;;;25.05;14.50;;;4.80;99.90;;;;;;5024645;28;20034;-72
2022/11/24 01:49:13;;;;;;;23.55;13.82;;;4.80;99.90;;;;;;5018505;28;20068;-72
2022/11/24 01:51:49;;;;;;;24.88;14.52;;;4.80;99.90;;;;;;5042807;28;20112;-72
2022/11/24 01:54:21;;;;;;;24.70;14.32;;;4.80;99.90;;;;;;5041395;28;20102;-72
2022/11/24 01:56:51;;;;;;;23.98;14.63;;;4.80;99.90;;;;;;5038881;28;20025;-71
2022/11/24 01:59:19;;;;;;;24.08;14.30;;;4.80;99.90;;;;;;5021310;28;20535;-72
2022/11/24 02:01:47;;;;;;;23.93;14.50;;;4.80;99.90;;;;;;5038824;28;20039;-72
2022/11/24 02:04:17;;;;;;;23.05;14.23;;;4.80;99.90;;;;;;5021091;28;20044;-71
2022/11/24 02:06:45;;;;;;;23.85;15.15;;;4.80;99.90;;;;;;5037923;28;20029;-71
2022/11/24 02:09:39;;;;;;;27.83;15.73;;;4.80;99.90;;;;;;5037683;28;20040;-71
2022/11/24 02:12:05;;;;;;;25.48;15.20;;;4.80;99.90;;;;;;5020284;28;20553;-72
2022/11/24 02:14:34;;;;;;;26.65;15.73;;;4.80;99.90;;;;;;5039395;28;20056;-72
2022/11/24 02:16:59;;;;;;;27.75;16.17;;;4.80;99.90;;;;;;5019882;28;20124;-72
2022/11/24 02:19:51;;;;;;;29.50;16.45;;;4.80;99.90;;;;;;5020399;28;20061;-72
2022/11/24 02:22:21;;;;;;;27.00;16.70;;;4.80;99.90;;;;;;5019138;28;20554;-72
2022/11/24 02:25:25;;;;;;;28.67;17.33;;;4.80;99.90;;;;;;5018972;28;20029;-72
2022/11/24 02:27:52;;;;;;;30.58;18.67;;;4.70;99.90;;;;;;5036796;28;20026;-71
2022/11/24 02:30:17;;;;;;;30.52;18.23;;;4.70;99.90;;;;;;5019359;28;20091;-72
2022/11/24 02:32:43;;;;;;;31.98;18.98;;;4.70;99.90;;;;;;5019299;28;20025;-71
2022/11/24 02:35:10;;;;;;;36.60;19.00;;;4.70;99.90;;;;;;5019074;28;20358;-71
2022/11/24 02:37:36;;;;;;;33.38;18.83;;;4.70;99.90;;;;;;5018317;28;20026;-71
2022/11/24 02:40:02;;;;;;;38.63;20.48;;;4.70;99.90;;;;;;5036168;28;20026;-71
2022/11/24 02:42:33;;;;;;;31.65;18.45;;;4.70;99.90;;;;;;5035796;28;20037;-71
2022/11/24 02:45:00;;;;;;;33.25;18.73;;;4.70;99.90;;;;;;5036377;28;20136;-71
2022/11/24 02:47:26;;;;;;;29.90;17.13;;;4.70;99.90;;;;;;5035973;28;20079;-71
2022/11/24 02:49:52;;;;;;;28.63;17.02;;;4.70;99.90;;;;;;5036027;28;20057;-71
2022/11/24 02:52:18;;;;;;;28.52;16.52;;;4.80;99.90;;;;;;5018617;28;20033;-71
2022/11/24 02:54:44;;;;;;;29.45;16.20;;;4.80;99.90;;;;;;5018572;28;20030;-71
2022/11/24 02:57:10;;;;;;;27.63;16.40;;;4.80;99.90;;;;;;5036859;28;20031;-71
2022/11/24 02:59:36;;;;;;;27.77;16.67;;;4.80;99.90;;;;;;5018217;28;20039;-71
2022/11/24 03:02:01;;;;;;;28.42;15.00;;;4.80;99.90;;;;;;5018139;28;20065;-71
2022/11/24 03:04:27;;;;;;;27.35;15.98;;;4.80;99.90;;;;;;5036093;28;20037;-71
2022/11/24 03:06:53;;;;;;;21.25;13.95;;;4.80;99.90;;;;;;5018893;28;20033;-71
2022/11/24 03:09:19;;;;;;;24.55;13.98;;;4.90;99.90;;;;;;5019163;28;20457;-71
2022/11/24 03:11:45;;;;;;;25.40;13.98;;;4.80;99.90;;;;;;5037232;28;20037;-71
2022/11/24 03:14:10;;;;;;;21.02;13.25;;;4.80;99.90;;;;;;5019980;28;20053;-71
2022/11/24 03:16:37;;;;;;;20.98;13.15;;;4.80;99.90;;;;;;5019257;28;20030;-71
2022/11/24 03:19:03;;;;;;;19.95;12.05;;;4.70;99.90;;;;;;5037401;28;20375;-71
2022/11/24 03:21:29;;;;;;;19.73;11.82;;;4.70;99.90;;;;;;5017635;28;20033;-71
2022/11/24 03:23:54;;;;;;;22.00;13.07;;;4.60;99.90;;;;;;5017946;28;20465;-71
2022/11/24 03:26:22;;;;;;;20.10;12.57;;;4.50;99.90;;;;;;5035147;28;20060;-71
2022/11/24 03:28:48;;;;;;;21.85;12.43;;;4.50;99.90;;;;;;5018157;28;20381;-71
2022/11/24 03:31:13;;;;;;;20.70;12.90;;;4.40;99.90;;;;;;5018504;28;20026;-71
2022/11/24 03:33:39;;;;;;;21.45;12.00;;;4.30;99.90;;;;;;5017385;28;20087;-71
2022/11/24 03:36:06;;;;;;;21.35;12.98;;;4.30;99.90;;;;;;5017279;28;20036;-71
2022/11/24 03:38:32;;;;;;;17.77;12.35;;;4.30;99.90;;;;;;5017496;28;20462;-71
2022/11/24 03:40:57;;;;;;;19.20;12.65;;;4.20;99.90;;;;;;5034417;28;20036;-71
2022/11/24 03:43:23;;;;;;;22.70;13.43;;;4.20;99.90;;;;;;5017346;28;20034;-71
2022/11/24 03:45:49;;;;;;;20.95;13.20;;;4.20;99.90;;;;;;5035061;28;20087;-71
2022/11/24 03:48:16;;;;;;;22.88;13.27;;;4.20;99.90;;;;;;5016950;28;20116;-71
2022/11/24 03:50:43;;;;;;;26.17;13.88;;;4.20;99.90;;;;;;5017952;28;20049;-71
2022/11/24 03:53:09;;;;;;;24.05;12.80;;;4.20;99.90;;;;;;5018964;28;20523;-71
2022/11/24 03:55:35;;;;;;;23.40;13.98;;;4.20;99.90;;;;;;5035166;28;20030;-71
2022/11/24 03:58:01;;;;;;;22.77;13.57;;;4.20;99.90;;;;;;5017361;28;20056;-71
2022/11/24 04:00:26;;;;;;;23.60;14.10;;;4.20;99.90;;;;;;5018259;28;20538;-71
2022/11/24 04:02:53;;;;;;;23.50;13.13;;;4.20;99.90;;;;;;5018156;28;20128;-71
2022/11/24 04:05:18;;;;;;;23.00;13.60;;;4.20;99.90;;;;;;5035679;28;20053;-71
2022/11/24 04:07:44;;;;;;;23.65;13.55;;;4.30;99.90;;;;;;5035100;28;20061;-72
2022/11/24 04:10:09;;;;;;;25.05;14.55;;;4.30;99.90;;;;;;5021834;28;20022;-72
2022/11/24 04:12:44;;;;;;;26.02;13.77;;;4.30;99.90;;;;;;5038408;28;20527;-71
2022/11/24 04:15:12;;;;;;;23.63;14.20;;;4.40;99.90;;;;;;5020653;28;20076;-72
2022/11/24 04:17:38;;;;;;;24.67;13.98;;;4.40;99.90;;;;;;5038871;28;20048;-72
2022/11/24 04:20:04;;;;;;;22.35;12.70;;;4.40;99.90;;;;;;5040427;28;20466;-72
2022/11/24 04:22:30;;;;;;;24.70;13.30;;;4.40;99.90;;;;;;5041420;28;20038;-72
2022/11/24 04:24:56;;;;;;;21.83;12.63;;;4.50;99.90;;;;;;5024613;28;20032;-72
2022/11/24 04:27:21;;;;;;;22.25;12.52;;;4.40;99.90;;;;;;5025089;28;20113;-72
2022/11/24 04:29:47;;;;;;;22.77;13.40;;;4.40;99.90;;;;;;5025230;28;20128;-72
2022/11/24 04:32:12;;;;;;;21.95;13.07;;;4.40;99.90;;;;;;5024688;28;20449;-72
2022/11/24 04:34:38;;;;;;;20.55;12.20;;;4.50;99.90;;;;;;5042491;28;20373;-72
2022/11/24 04:37:04;;;;;;;22.48;12.40;;;4.50;99.90;;;;;;5027046;28;20381;-72
2022/11/24 04:39:29;;;;;;;21.25;12.07;;;4.50;99.90;;;;;;5045817;28;20029;-72
2022/11/24 04:41:55;;;;;;;21.80;12.85;;;4.50;99.90;;;;;;5027593;28;20033;-72
2022/11/24 04:44:21;;;;;;;20.45;11.35;;;4.50;99.90;;;;;;5044855;28;20106;-73
2022/11/24 04:46:46;;;;;;;19.15;10.98;;;4.50;99.90;;;;;;5046230;28;20053;-72
2022/11/24 04:49:12;;;;;;;19.02;11.13;;;4.50;99.90;;;;;;5046049;28;20052;-73
2022/11/24 04:51:38;;;;;;;18.58;11.40;;;4.50;99.90;;;;;;5027840;28;20057;-72
2022/11/24 04:54:06;;;;;;;20.00;11.30;;;4.50;99.90;;;;;;5045161;28;20454;-72
2022/11/24 04:56:32;;;;;;;19.30;10.40;;;4.50;99.90;;;;;;5044544;28;20057;-72
2022/11/24 04:58:58;;;;;;;17.17;10.73;;;4.50;99.90;;;;;;5026797;28;20033;-73
2022/11/24 05:01:23;;;;;;;17.67;10.95;;;4.50;99.90;;;;;;5043598;28;20466;-72
2022/11/24 05:03:53;;;;;;;16.25;10.80;;;4.50;99.90;;;;;;5043151;28;20056;-72
2022/11/24 05:06:19;;;;;;;17.80;10.20;;;4.40;99.90;;;;;;5025533;28;20576;-72
2022/11/24 05:08:49;;;;;;;14.05;9.35;;;4.40;99.90;;;;;;5026122;28;20372;-72
2022/11/24 05:11:15;;;;;;;16.10;10.73;;;4.40;99.90;;;;;;5025702;28;20083;-73
2022/11/24 05:13:41;;;;;;;16.52;9.98;;;4.40;99.90;;;;;;5026942;28;20457;-73
2022/11/24 05:16:07;;;;;;;14.88;9.32;;;4.30;99.90;;;;;;5026665;28;20025;-72
2022/11/24 05:18:34;;;;;;;13.98;8.98;;;4.30;99.90;;;;;;5027135;28;20089;-72
2022/11/24 05:21:00;;;;;;;12.98;8.25;;;4.30;99.90;;;;;;5025324;28;20026;-73
2022/11/24 05:23:26;;;;;;;13.82;8.85;;;4.30;99.90;;;;;;5027336;28;20032;-73
2022/11/24 05:25:52;;;;;;;11.95;7.90;;;4.30;99.90;;;;;;5045963;28;20476;-73
2022/11/24 05:28:18;;;;;;;13.45;8.27;;;4.30;99.90;;;;;;5027159;28;20040;-73
2022/11/24 05:30:44;;;;;;;12.73;8.38;;;4.30;99.90;;;;;;5044149;28;20021;-73
2022/11/24 05:33:17;;;;;;;15.75;8.77;;;4.30;99.90;;;;;;5027665;28;20105;-73
2022/11/24 05:35:44;;;;;;;12.45;8.02;;;4.30;99.90;;;;;;5029157;28;20063;-73
2022/11/24 05:38:10;;;;;;;12.55;7.88;;;4.20;99.90;;;;;;5045303;28;20049;-73
2022/11/24 05:40:36;;;;;;;11.13;7.72;;;4.30;99.90;;;;;;5046603;28;20052;-73
2022/11/24 05:43:01;;;;;;;11.10;7.15;;;4.30;99.90;;;;;;5046113;28;20037;-72
2022/11/24 05:45:27;;;;;;;8.40;6.35;;;4.30;99.90;;;;;;5028131;28;20029;-73
2022/11/24 05:47:53;;;;;;;12.65;7.53;;;4.30;99.90;;;;;;5029258;28;20457;-73
2022/11/24 05:50:20;;;;;;;10.57;7.75;;;4.30;99.90;;;;;;5045723;28;20097;-73
2022/11/24 05:52:47;;;;;;;10.45;7.20;;;4.40;99.90;;;;;;5029096;28;20381;-74
2022/11/24 05:55:14;;;;;;;8.90;6.25;;;4.40;99.90;;;;;;5029711;28;20030;-74
2022/11/24 05:57:40;;;;;;;8.52;6.07;;;4.40;99.90;;;;;;5029887;28;20093;-74
2022/11/24 06:00:08;;;;;;;10.05;7.00;;;4.40;99.90;;;;;;5029953;28;20040;-74
2022/11/24 06:02:33;;;;;;;9.07;6.53;;;4.40;99.90;;;;;;5027689;28;20056;-74
2022/11/24 06:04:59;;;;;;;10.68;7.20;;;4.30;99.90;;;;;;5028197;28;20052;-74
2022/11/24 06:07:25;;;;;;;9.57;6.18;;;4.30;99.90;;;;;;5028029;28;20025;-74
2022/11/24 06:09:50;;;;;;;8.90;6.15;;;4.30;99.90;;;;;;5044528;28;20021;-74
2022/11/24 06:12:16;;;;;;;10.05;6.63;;;4.30;99.90;;;;;;5026771;28;20029;-74
2022/11/24 06:14:42;;;;;;;8.38;5.93;;;4.30;99.90;;;;;;5027366;28;20026;-74
2022/11/24 06:17:09;;;;;;;8.57;6.63;;;4.40;99.90;;;;;;5044306;28;20086;-74
2022/11/24 06:19:35;;;;;;;8.85;5.85;;;4.30;99.90;;;;;;5045337;28;20021;-74
2022/11/24 06:22:00;;;;;;;6.97;5.30;;;4.40;99.90;;;;;;5044801;28;20400;-74
2022/11/24 06:24:26;;;;;;;7.88;5.40;;;4.40;99.90;;;;;;5026597;28;20028;-74
2022/11/24 06:26:52;;;;;;;6.72;4.88;;;4.40;99.90;;;;;;5043473;28;20025;-74
2022/11/24 06:29:17;;;;;;;8.38;5.50;;;4.40;99.90;;;;;;5024458;28;20121;-74
2022/11/24 06:31:43;;;;;;;8.25;5.18;;;4.40;99.90;;;;;;5023122;28;20033;-74
2022/11/24 06:34:11;;;;;;;6.63;5.00;;;4.40;99.90;;;;;;5023791;28;20074;-74
2022/11/24 06:36:39;;;;;;;4.70;3.75;;;4.50;99.90;;;;;;5022855;28;20025;-74
2022/11/24 06:39:06;;;;;;;5.97;4.60;;;4.50;99.90;;;;;;5041658;28;20385;-74
2022/11/24 06:41:32;;;;;;;6.45;4.25;;;4.60;99.90;;;;;;5023322;28;20064;-74
2022/11/24 06:43:57;;;;;;;7.80;4.63;;;4.70;99.90;;;;;;5039832;28;20473;-74
2022/11/24 06:46:23;;;;;;;8.90;4.50;;;4.70;99.90;;;;;;5022500;28;20465;-75
2022/11/24 06:48:52;;;;;;;5.53;3.63;;;4.70;99.90;;;;;;5022290;28;20045;-75
2022/11/24 06:51:18;;;;;;;;;;;4.80;99.90;;;;;;5024160;28;20026;-74
2022/11/24 06:53:44;;;;;;;5.60;4.10;;;4.80;99.90;;;;;;5021864;28;19912;-73
2022/11/24 06:56:13;;;;;;;5.15;4.38;;;4.80;99.90;;;;;;5041812;28;20026;-74
2022/11/24 06:58:45;;;;;;;5.05;4.10;;;4.90;99.90;;;;;;5042170;28;20025;-74
2022/11/24 07:01:15;;;;;;;6.72;4.25;;;4.90;99.90;;;;;;5024033;28;20057;-74
2022/11/24 07:03:40;;;;;;;6.57;4.75;;;4.90;99.90;;;;;;5041465;28;20027;-74
2022/11/24 07:06:06;;;;;;;4.70;3.90;;;5.00;99.90;;;;;;5025345;28;20045;-74
2022/11/24 07:08:32;;;;;;;5.57;4.22;;;5.00;99.90;;;;;;5040109;28;20021;-74
2022/11/24 07:11:04;;;;;;;7.40;4.43;;;5.00;99.90;;;;;;5024811;28;20033;-74
2022/11/24 07:13:30;;;;;;;4.82;3.72;;;5.10;99.90;;;;;;5021850;28;20059;-74
2022/11/24 07:15:55;;;;;;;4.97;3.70;;;5.10;99.90;;;;;;5037927;28;20029;-74
2022/11/24 07:18:21;;;;;;;4.72;4.18;;;5.10;99.90;;;;;;5018422;28;20029;-74
2022/11/24 07:20:46;;;;;;;5.32;4.25;;;5.20;99.90;;;;;;5035697;28;20022;-74
2022/11/24 07:23:12;;;;;;;6.32;4.22;;;5.20;99.90;;;;;;5018133;28;20044;-74
2022/11/24 07:25:38;;;;;;;5.50;3.72;;;5.30;99.90;;;;;;5018867;28;20051;-75
2022/11/24 07:28:04;;;;;;;4.30;3.30;;;5.30;99.90;;;;;;5036026;28;20107;-74
2022/11/24 07:30:30;;;;;;;6.47;3.92;;;5.30;99.90;;;;;;5019673;28;20052;-74
2022/11/24 07:33:02;;;;;;;4.90;3.90;;;5.40;99.90;;;;;;5017508;28;20481;-74
2022/11/24 07:35:29;;;;;;;5.63;3.75;;;5.40;99.90;;;;;;5036159;28;20108;-74
2022/11/24 07:37:58;;;;;;;6.18;3.33;;;5.40;99.90;;;;;;5020755;28;20057;-75
2022/11/24 07:40:24;;;;;;;;;;;5.50;99.90;;;;;;5024281;28;20092;-74
2022/11/24 07:42:50;;;;;;;3.83;3.05;;;5.50;99.90;;;;;;5021778;28;19913;-75
2022/11/24 07:45:16;;;;;;;8.82;3.95;;;5.50;99.90;;;;;;5023703;28;20167;-76
2022/11/24 07:47:42;;;;;;;4.68;3.95;;;5.60;99.90;;;;;;5025715;28;20469;-76
2022/11/24 07:50:08;;;;;;;7.70;3.95;;;5.50;99.90;;;;;;5041364;28;20081;-76
2022/11/24 07:52:35;;;;;;;5.05;3.78;;;5.50;99.90;;;;;;5024990;28;20036;-76
2022/11/24 07:55:39;;;;;;;7.28;4.35;;;5.50;99.90;;;;;;5026073;28;20501;-76
2022/11/24 08:01:28;;;;;;;4.32;3.22;;;5.60;99.90;;;;;;5040966;28;20508;-76
2022/11/24 08:03:53;;;;;;;7.03;4.45;;;5.60;99.90;;;;;;5023048;28;20030;-76
2022/11/24 08:06:19;;;;;;;5.95;3.95;;;5.50;99.90;;;;;;5021423;28;20021;-76
2022/11/24 08:08:45;;;;;;;4.70;3.90;;;5.50;99.90;;;;;;5022226;28;20075;-76
2022/11/24 08:11:14;;;;;;;6.78;3.88;;;5.50;99.90;;;;;;5021436;28;20116;-76
2022/11/24 08:17:16;;;;;;;5.93;3.92;;;5.50;99.90;;;;;;5040962;28;20034;-76
2022/11/24 08:19:42;;;;;;;5.82;3.70;;;5.50;99.90;;;;;;5020755;28;20040;-74
2022/11/24 08:22:08;;;;;;;5.88;4.03;;;5.50;99.90;;;;;;5020168;28;20041;-76
2022/11/24 08:24:33;;;;;;;5.88;3.00;;;5.50;99.90;;;;;;5020853;28;20025;-76
2022/11/24 08:26:59;;;;;;;6.63;3.63;;;5.50;99.90;;;;;;5021416;28;20029;-75
2022/11/24 08:29:29;;;;;;;6.78;3.97;;;5.60;99.90;;;;;;5020722;28;20028;-75
2022/11/24 08:31:56;;;;;;;6.90;4.20;;;5.60;99.90;;;;;;5037867;28;20029;-76
2022/11/24 08:34:23;;;;;;;5.43;3.80;;;5.60;99.90;;;;;;5020819;28;20026;-73
2022/11/24 08:36:50;;;;;;;5.60;4.00;;;5.60;99.90;;;;;;5020997;28;20029;-74
2022/11/24 08:39:15;;;;;;;8.88;4.45;;;5.60;99.90;;;;;;5024517;28;20032;-74
2022/11/24 08:41:41;;;;;;;6.13;4.00;;;5.60;99.90;;;;;;5028712;28;20038;-76
2022/11/24 08:44:09;;;;;;;8.07;4.10;;;5.60;99.90;;;;;;5045735;28;20539;-76
2022/11/24 08:46:34;;;;;;;6.68;4.65;;;5.60;99.90;;;;;;5043212;28;20031;-76
2022/11/24 08:49:00;;;;;;;8.32;5.05;;;5.50;99.90;;;;;;5040893;28;20045;-76
2022/11/24 08:51:27;;;;;;;8.02;5.28;;;5.60;99.90;;;;;;5041240;28;20033;-76
2022/11/24 08:53:54;;;;;;;7.40;4.80;;;5.60;99.90;;;;;;5023005;28;20069;-75
2022/11/24 08:56:20;;;;;;;7.95;4.80;;;5.60;99.90;;;;;;5021884;28;20097;-76
2022/11/24 08:58:46;;;;;;;9.52;5.50;;;5.50;99.90;;;;;;5021043;28;20088;-77
2022/11/24 09:01:16;;;;;;;7.68;5.57;;;5.60;99.90;;;;;;5020710;28;20379;-76
2022/11/24 09:03:43;;;;;;;10.32;5.13;;;5.60;99.90;;;;;;5020818;28;20077;-77
2022/11/24 09:06:09;;;;;;;7.03;4.88;;;5.60;99.90;;;;;;5038616;28;20104;-77
2022/11/24 09:08:36;;;;;;;9.18;5.80;;;5.60;99.90;;;;;;5038303;28;20450;-77
2022/11/24 09:11:07;;;;;;;10.50;6.50;;;5.60;99.90;;;;;;5038952;28;20358;-76
2022/11/24 09:13:33;;;;;;;10.25;5.93;;;5.70;99.90;;;;;;5021157;28;20092;-77
2022/11/24 09:16:04;;;;;;;10.80;6.93;;;5.70;99.90;;;;;;5023555;28;20052;-77
2022/11/24 09:18:29;;;;;;;10.23;6.80;;;5.70;99.90;;;;;;5025521;28;20060;-76
2022/11/24 09:21:15;;;;;;;10.35;6.25;;;5.70;99.90;;;;;;5026364;28;20457;-76
2022/11/24 09:23:42;;;;;;;10.32;6.30;;;5.70;99.90;;;;;;5023836;28;20040;-76
2022/11/24 09:26:13;;;;;;;15.98;7.32;;;5.70;99.90;;;;;;5041298;28;20021;-77
2022/11/24 09:32:02;;;;;;;10.60;7.47;;;5.80;99.90;;;;;;5041359;28;20048;-76
2022/11/24 09:34:27;;;;;;;12.35;8.38;;;5.70;99.90;;;;;;5026341;28;20034;-77
2022/11/24 09:36:53;;;;;;;14.10;8.38;;;5.80;99.90;;;;;;5027684;28;20037;-77
2022/11/24 09:39:19;;;;;;;17.02;8.82;;;5.70;99.90;;;;;;5028389;28;20025;-77
2022/11/24 09:45:38;;;;;;;13.77;8.05;;;5.70;99.90;;;;;;5040828;28;20025;-77
2022/11/24 09:48:14;;;;;;;17.45;9.68;;;5.80;99.90;;;;;;5024630;28;20052;-77
2022/11/24 09:50:49;;;;;;;14.35;8.85;;;5.80;99.90;;;;;;5025817;28;20087;-77
2022/11/24 09:53:36;;;;;;;12.38;8.55;;;5.90;99.90;;;;;;5045304;28;20037;-77
2022/11/24 09:56:22;;;;;;;15.52;9.13;;;5.90;99.90;;;;;;5045838;28;20433;-77
2022/11/24 09:58:50;;;;;;;16.33;9.25;;;5.90;99.90;;;;;;5027473;28;20041;-76
2022/11/24 10:01:24;;;;;;;13.70;8.48;;;5.90;99.90;;;;;;5022746;28;20021;-76
2022/11/24 10:03:52;;;;;;;17.92;8.60;;;5.90;99.90;;;;;;5042772;28;20022;-77
2022/11/24 10:06:29;;;;;;;17.73;8.60;;;6.00;99.90;;;;;;5042848;28;20032;-76
2022/11/24 10:09:07;;;;;;;15.43;8.82;;;6.00;99.90;;;;;;5021861;28;20029;-77
2022/11/24 10:11:41;;;;;;;13.75;8.95;;;6.00;99.90;;;;;;5025068;28;20038;-77
2022/11/24 10:14:38;;;;;;;14.10;8.95;;;6.10;99.90;;;;;;5023009;28;20044;-77
2022/11/24 10:17:24;;;;;;;16.15;9.30;;;6.10;99.90;;;;;;5020686;28;20026;-76
2022/11/24 10:20:07;;;;;;;16.52;8.80;;;6.10;99.90;;;;;;5038694;28;20076;-77
2022/11/24 10:23:04;;;;;;;18.17;9.50;;;6.20;99.90;;;;;;5025253;28;20033;-77
2022/11/24 10:25:35;;;;;;;16.20;9.50;;;6.20;99.90;;;;;;5038816;28;20037;-77
2022/11/24 10:28:10;;;;;;;16.50;10.25;;;6.30;99.90;;;;;;5042632;28;20394;-77
2022/11/24 10:30:36;;;;;;;17.23;10.25;;;6.30;99.90;;;;;;5026729;28;20032;-77
2022/11/24 10:33:18;;;;;;;15.45;10.18;;;6.30;99.90;;;;;;5025730;28;20029;-77
2022/11/24 10:39:15;;;;;;;13.38;8.57;;;6.40;99.90;;;;;;5044676;28;20028;-81
2022/11/24 10:42:11;;;;;;;13.40;8.05;;;6.50;99.90;;;;;;5041252;28;20033;-79
2022/11/24 10:44:39;;;;;;;11.50;7.03;;;6.50;99.90;;;;;;5022196;28;20057;-77
2022/11/24 10:47:18;;;;;;;13.57;8.60;;;6.60;99.90;;;;;;5037419;28;20018;-81
2022/11/24 10:49:59;;;;;;;12.43;7.93;;;6.60;99.90;;;;;;5018900;28;20046;-78
2022/11/24 10:52:27;;;;;;;22.52;10.95;;;6.60;99.90;;;;;;5018604;28;20466;-79
2022/11/24 10:54:58;;;;;;;16.88;9.43;;;6.60;99.90;;;;;;5038291;28;20029;-79
2022/11/24 10:57:33;;;;;;;18.52;9.85;;;6.60;99.90;;;;;;5025448;28;20034;-78
2022/11/24 11:03:32;;;;;;;14.20;8.70;;;6.70;99.90;;;;;;5017788;28;20036;-80
2022/11/24 11:06:09;;;;;;;12.30;8.60;;;6.70;99.90;;;;;;5003247;28;20126;-75
2022/11/24 11:08:34;;;;;;;13.13;9.02;;;6.70;99.90;;;;;;5004187;28;20025;-75
2022/11/24 11:11:29;;;;;;;19.42;9.18;;;6.80;99.90;;;;;;5002347;28;20409;-78
2022/11/24 11:14:02;;;;;;;14.07;8.80;;;6.90;99.90;;;;;;5018413;28;20026;-78
2022/11/24 11:16:42;;;;;;;14.40;9.07;;;6.90;99.90;;;;;;5001821;28;20542;-74
2022/11/24 11:19:34;;;;;;;13.90;8.95;;;6.90;99.90;;;;;;5001306;28;20096;-75
2022/11/24 11:22:11;;;;;;;18.83;8.85;;;7.00;99.90;;;;;;5017417;28;20073;-76
2022/11/24 11:24:41;;;;;;;16.70;8.57;;;7.10;99.90;;;;;;5001173;28;20026;-78
2022/11/24 11:27:19;;;;;;;12.10;8.23;;;7.10;99.90;;;;;;5000784;28;20054;-77
2022/11/24 11:29:50;;;;;;;12.00;7.30;;;7.10;99.90;;;;;;5016702;28;20029;-76
2022/11/24 11:32:18;;;;;;;12.23;7.38;;;7.10;99.90;;;;;;4999479;28;20037;-78
2022/11/24 11:34:45;;;;;;;13.98;7.65;;;7.10;99.90;;;;;;5018407;28;20500;-77
2022/11/24 11:37:13;;;;;;;13.50;7.00;;;7.10;99.90;;;;;;5020514;28;20033;-82
2022/11/24 11:39:55;;;;;;;14.38;8.10;;;7.10;99.90;;;;;;5020351;28;20061;-80
2022/11/24 11:45:46;;;;;;;15.32;7.18;;;7.10;99.90;;;;;;5039182;28;20029;-82
2022/11/24 11:48:29;;;;;;;13.07;6.93;;;7.10;99.90;;;;;;5020261;28;20033;-78
2022/11/24 11:51:04;;;;;;;11.85;7.43;;;7.10;99.90;;;;;;5036890;28;20076;-77
2022/11/24 11:53:43;;;;;;;12.73;7.15;;;7.10;99.90;;;;;;5019246;28;20495;-78
2022/11/24 11:56:29;;;;;;;13.20;7.50;;;7.10;99.90;;;;;;5038025;28;20021;-79
2022/11/24 11:59:13;;;;;;;14.38;7.43;;;7.10;99.90;;;;;;5019704;28;20030;-78
2022/11/24 12:01:51;;;;;;;12.52;8.13;;;7.10;99.90;;;;;;5019667;28;20115;-77
2022/11/24 12:04:22;;;;;;;14.77;7.63;;;7.20;99.90;;;;;;5037470;28;20033;-81
2022/11/24 12:06:50;;;;;;;14.00;8.25;;;7.20;99.90;;;;;;5036840;28;20036;-77
2022/11/24 12:09:23;;;;;;;15.30;7.68;;;7.30;99.90;;;;;;5019224;28;20022;-77
2022/11/24 12:12:33;;;;;;;15.90;8.60;;;7.30;99.90;;;;;;5019123;28;20113;-77
2022/11/24 12:15:49;;;;;;;16.15;7.85;;;7.30;99.90;;;;;;5011917;28;20030;-76
2022/11/24 12:18:38;;;;;;;15.88;8.65;;;7.40;99.90;;;;;;5020201;28;20501;-76
2022/11/24 12:21:25;;;;;;;13.13;7.72;;;7.40;99.90;;;;;;5037832;28;20115;-75
2022/11/24 12:24:13;;;;;;;16.00;8.68;;;7.40;99.90;;;;;;5020200;28;20465;-76
2022/11/24 12:27:17;;;;;;;12.70;7.85;;;7.50;99.90;;;;;;5038424;28;20055;-77
2022/11/24 12:29:48;;;;;;;11.98;6.68;;;7.50;99.90;;;;;;5017540;28;20068;-76
2022/11/24 12:32:39;;;;;;;14.73;7.68;;;7.70;99.90;;;;;;5022058;28;20026;-75
2022/11/24 12:35:05;;;;;;;14.43;7.50;;;7.80;99.90;;;;;;5023008;28;20065;-76
2022/11/24 12:37:40;;;;;;;16.40;6.95;;;7.90;99.90;;;;;;5039478;28;20119;-75
2022/11/24 12:40:39;;;;;;;14.82;6.68;;;8.00;99.90;;;;;;5020798;28;20389;-76
2022/11/24 12:43:16;;;;;;;11.15;6.15;;;8.00;99.90;;;;;;5023328;28;20037;-76
2022/11/24 12:46:03;;;;;;;10.02;5.80;;;8.00;99.90;;;;;;5042848;28;20433;-76
2022/11/24 12:48:51;;;;;;;8.20;6.20;;;7.90;99.90;;;;;;5025128;28;20117;-75
2022/11/24 12:51:19;;;;;;;14.85;6.47;;;7.80;99.90;;;;;;5044658;28;20049;-75
2022/11/24 12:53:49;;;;;;;10.93;6.05;;;7.70;99.90;;;;;;5026062;28;20028;-74
2022/11/24 12:56:21;;;;;;;10.82;6.07;;;7.70;99.90;;;;;;5026048;28;20048;-75
2022/11/24 12:58:54;;;;;;;10.40;7.10;;;7.70;99.90;;;;;;5028324;28;20025;-74
2022/11/24 13:01:58;;;;;;;9.43;6.43;;;7.70;99.90;;;;;;5048990;28;20107;-75
2022/11/24 13:04:35;;;;;;;14.02;6.93;;;7.70;99.90;;;;;;5036138;28;20037;-74
2022/11/24 13:07:13;;;;;;;11.88;7.25;;;7.80;99.90;;;;;;5044217;28;20029;-74
2022/11/24 13:10:18;;;;;;;11.27;6.15;;;7.80;99.90;;;;;;5026312;28;20044;-74
2022/11/24 13:12:52;;;;;;;12.07;6.80;;;7.80;99.90;;;;;;5042580;28;20052;-74
2022/11/24 13:15:18;;;;;;;11.70;7.20;;;7.80;99.90;;;;;;5041882;28;20040;-74
2022/11/24 13:17:43;;;;;;;10.43;6.30;;;7.80;99.90;;;;;;5045324;28;20029;-75
2022/11/24 13:20:39;;;;;;;8.90;7.05;;;7.80;99.90;;;;;;5029446;28;20052;-75
2022/11/24 13:23:18;;;;;;;15.00;7.18;;;7.90;99.90;;;;;;5028980;28;20061;-74
2022/11/24 13:26:14;;;;;;;11.60;6.72;;;8.00;99.90;;;;;;5043955;28;20052;-73